createdAt,value
2018-09-27T00:00:44.837Z,0.00
2018-09-27T00:01:44.863Z,0.00
2018-09-27T00:02:44.756Z,0.00
2018-09-27T00:03:44.719Z,0.00
2018-09-27T00:04:44.667Z,0.00
2018-09-27T00:05:44.640Z,0.00
2018-09-27T00:06:44.593Z,0.00
2018-09-27T00:07:44.567Z,0.00
2018-09-27T00:08:44.498Z,0.00
2018-09-27T00:09:44.483Z,0.00
2018-09-27T00:10:44.428Z,0.00
2018-09-27T00:11:44.374Z,0.00
2018-09-27T00:12:44.332Z,0.00
2018-09-27T00:13:44.297Z,0.00
2018-09-27T00:14:44.314Z,0.00
2018-09-27T00:15:44.220Z,0.00
2018-09-27T00:16:44.177Z,0.00
2018-09-27T00:17:44.132Z,0.00
2018-09-27T00:18:44.093Z,0.00
2018-09-27T00:19:44.087Z,0.00
2018-09-27T00:20:44.032Z,0.00
2018-09-27T00:21:43.961Z,0.00
2018-09-27T00:24:15.843Z,0.00
2018-09-27T00:25:15.823Z,0.00
2018-09-27T00:27:08.809Z,0.00
2018-09-27T00:28:08.716Z,0.00
2018-09-27T00:29:08.639Z,0.00
2018-09-27T00:30:08.622Z,0.00
2018-09-27T00:31:08.497Z,0.00
2018-09-27T00:32:08.452Z,0.00
2018-09-27T00:33:08.397Z,0.00
2018-09-27T00:34:08.446Z,0.00
2018-09-27T00:35:08.321Z,0.00
2018-09-27T00:36:08.296Z,0.00
2018-09-27T00:37:08.249Z,0.00
2018-09-27T00:38:08.222Z,0.00
2018-09-27T00:39:08.149Z,0.00
2018-09-27T00:40:08.118Z,0.00
2018-09-27T00:41:08.067Z,0.00
2018-09-27T00:42:08.049Z,0.00
2018-09-27T00:43:08.018Z,0.00
2018-09-27T00:44:07.938Z,0.00
2018-09-27T00:45:07.926Z,0.00
2018-09-27T00:46:07.852Z,0.00
2018-09-27T00:47:07.842Z,0.00
2018-09-27T00:48:07.767Z,0.00
2018-09-27T00:49:07.742Z,0.00
2018-09-27T00:50:07.701Z,0.00
2018-09-27T00:51:07.652Z,0.00
2018-09-27T00:52:07.628Z,0.00
2018-09-27T00:53:07.598Z,0.00
2018-09-27T00:54:07.535Z,0.00
2018-09-27T00:55:07.504Z,0.00
2018-09-27T00:56:07.461Z,0.00
2018-09-27T00:57:07.429Z,0.00
2018-09-27T00:58:07.369Z,0.00
2018-09-27T00:59:07.340Z,0.00
2018-09-27T01:00:07.278Z,0.00
2018-09-27T01:01:07.264Z,0.00
2018-09-27T01:02:07.196Z,0.00
2018-09-27T01:03:07.141Z,0.00
2018-09-27T01:04:07.116Z,0.00
2018-09-27T01:05:07.067Z,0.00
2018-09-27T01:06:07.033Z,0.00
2018-09-27T01:07:06.980Z,0.00
2018-09-27T01:08:06.936Z,0.00
2018-09-27T01:09:06.897Z,0.00
2018-09-27T01:10:06.864Z,0.00
2018-09-27T01:11:06.820Z,0.00
2018-09-27T01:12:06.771Z,0.00
2018-09-27T01:13:06.763Z,0.00
2018-09-27T01:14:06.698Z,0.00
2018-09-27T01:15:06.656Z,0.00
2018-09-27T01:16:06.623Z,0.00
2018-09-27T01:17:06.565Z,0.00
2018-09-27T01:18:06.533Z,0.00
2018-09-27T01:19:06.485Z,0.00
2018-09-27T01:20:06.449Z,0.00
2018-09-27T01:21:06.423Z,0.00
2018-09-27T01:22:06.345Z,0.00
2018-09-27T01:23:06.309Z,0.00
2018-09-27T01:24:06.262Z,0.00
2018-09-27T01:25:06.270Z,0.00
2018-09-27T01:26:06.187Z,0.00
2018-09-27T01:27:06.165Z,0.00
2018-09-27T01:28:06.113Z,0.00
2018-09-27T01:29:06.061Z,0.00
2018-09-27T01:30:06.016Z,0.00
2018-09-27T01:31:05.991Z,0.00
2018-09-27T01:32:05.946Z,0.00
2018-09-27T01:33:05.909Z,0.00
2018-09-27T01:34:05.869Z,0.00
2018-09-27T01:35:05.864Z,0.00
2018-09-27T01:36:05.763Z,0.00
2018-09-27T01:37:05.730Z,0.00
2018-09-27T01:38:05.692Z,0.00
2018-09-27T01:39:05.647Z,0.00
2018-09-27T01:40:05.601Z,0.00
2018-09-27T01:41:05.556Z,0.00
2018-09-27T01:42:05.522Z,0.00
2018-09-27T01:43:05.484Z,0.00
2018-09-27T01:44:05.453Z,0.00
2018-09-27T01:45:05.431Z,0.00
2018-09-27T01:46:05.343Z,0.00
2018-09-27T01:47:05.382Z,0.00
2018-09-27T01:48:05.279Z,0.00
2018-09-27T01:49:05.235Z,0.00
2018-09-27T01:50:05.192Z,0.00
2018-09-27T01:51:05.167Z,0.00
2018-09-27T01:52:05.106Z,0.00
2018-09-27T01:53:05.063Z,0.00
2018-09-27T01:54:05.024Z,0.00
2018-09-27T01:55:04.969Z,0.00
2018-09-27T01:56:04.984Z,0.00
2018-09-27T01:57:04.894Z,0.00
2018-09-27T01:58:04.842Z,0.00
2018-09-27T01:59:04.803Z,0.00
2018-09-27T02:00:04.757Z,0.00
2018-09-27T02:01:04.715Z,0.00
2018-09-27T02:02:04.674Z,0.00
2018-09-27T02:03:04.652Z,0.00
2018-09-27T02:04:04.624Z,0.00
2018-09-27T02:05:04.564Z,0.00
2018-09-27T02:06:04.550Z,0.00
2018-09-27T02:07:04.480Z,0.00
2018-09-27T02:08:04.443Z,0.00
2018-09-27T02:09:04.383Z,0.00
2018-09-27T02:10:04.395Z,0.00
2018-09-27T02:11:04.309Z,0.00
2018-09-27T02:12:04.262Z,0.00
2018-09-27T02:13:04.237Z,0.00
2018-09-27T02:14:04.201Z,0.00
2018-09-27T02:15:04.166Z,0.00
2018-09-27T02:16:04.126Z,0.00
2018-09-27T02:17:04.062Z,0.00
2018-09-27T02:18:04.061Z,0.00
2018-09-27T02:19:03.967Z,0.00
2018-09-27T02:20:03.955Z,0.00
2018-09-27T02:21:03.892Z,0.00
2018-09-27T02:22:03.861Z,0.00
2018-09-27T02:23:03.826Z,0.00
2018-09-27T02:24:03.792Z,0.00
2018-09-27T02:25:03.732Z,0.00
2018-09-27T02:26:03.695Z,0.00
2018-09-27T02:27:03.670Z,0.00
2018-09-27T02:28:03.598Z,0.00
2018-09-27T02:29:03.580Z,0.00
2018-09-27T02:30:03.552Z,0.00
2018-09-27T02:31:03.502Z,0.00
2018-09-27T02:32:03.440Z,0.00
2018-09-27T02:33:03.416Z,0.00
2018-09-27T02:34:03.381Z,0.00
2018-09-27T02:35:03.360Z,0.00
2018-09-27T02:36:03.272Z,0.00
2018-09-27T02:37:03.228Z,0.00
2018-09-27T02:38:03.198Z,0.00
2018-09-27T02:39:03.151Z,0.00
2018-09-27T02:40:03.150Z,0.00
2018-09-27T02:41:03.078Z,0.00
2018-09-27T02:42:03.060Z,0.00
2018-09-27T02:43:02.982Z,0.00
2018-09-27T02:44:02.950Z,0.00
2018-09-27T02:45:02.899Z,0.00
2018-09-27T02:46:02.849Z,0.00
2018-09-27T02:47:02.824Z,0.00
2018-09-27T02:48:02.789Z,0.00
2018-09-27T02:49:02.730Z,0.00
2018-09-27T02:50:02.725Z,0.00
2018-09-27T02:51:02.645Z,0.00
2018-09-27T02:52:02.603Z,0.00
2018-09-27T02:53:02.552Z,0.00
2018-09-27T02:54:02.521Z,0.00
2018-09-27T02:55:02.479Z,0.00
2018-09-27T02:56:02.508Z,0.00
2018-09-27T02:57:02.434Z,0.00
2018-09-27T02:58:02.355Z,0.00
2018-09-27T02:59:02.349Z,0.00
2018-09-27T03:00:02.287Z,0.00
2018-09-27T03:01:02.233Z,0.00
2018-09-27T03:02:02.245Z,0.00
2018-09-27T03:03:02.196Z,0.00
2018-09-27T03:04:02.118Z,0.00
2018-09-27T03:05:02.101Z,0.00
2018-09-27T03:06:02.046Z,0.00
2018-09-27T03:07:02.008Z,0.00
2018-09-27T03:08:01.986Z,0.00
2018-09-27T03:09:01.896Z,0.00
2018-09-27T03:10:01.870Z,0.00
2018-09-27T03:11:01.845Z,0.00
2018-09-27T03:12:01.789Z,0.00
2018-09-27T03:13:01.801Z,0.00
2018-09-27T03:14:01.704Z,0.00
2018-09-27T03:15:01.694Z,0.00
2018-09-27T03:16:01.627Z,0.00
2018-09-27T03:17:01.581Z,0.00
2018-09-27T03:18:01.572Z,0.00
2018-09-27T03:19:01.496Z,0.00
2018-09-27T03:20:01.458Z,0.00
2018-09-27T03:21:01.445Z,0.00
2018-09-27T03:22:01.398Z,0.00
2018-09-27T03:23:01.323Z,0.00
2018-09-27T03:24:01.285Z,0.00
2018-09-27T03:25:01.262Z,0.00
2018-09-27T03:26:01.220Z,0.00
2018-09-27T03:27:01.168Z,0.00
2018-09-27T03:28:01.124Z,0.00
2018-09-27T03:29:01.111Z,0.00
2018-09-27T03:30:01.045Z,0.00
2018-09-27T03:31:01.019Z,0.00
2018-09-27T03:32:01.004Z,0.00
2018-09-27T03:33:00.907Z,0.00
2018-09-27T03:34:00.916Z,0.00
2018-09-27T03:35:00.825Z,0.00
2018-09-27T03:36:00.820Z,0.00
2018-09-27T03:37:00.754Z,0.00
2018-09-27T03:38:00.715Z,0.00
2018-09-27T03:39:00.667Z,0.00
2018-09-27T03:40:00.636Z,0.00
2018-09-27T03:41:00.599Z,0.00
2018-09-27T03:42:00.576Z,0.00
2018-09-27T03:43:00.504Z,0.00
2018-09-27T03:44:00.494Z,0.00
2018-09-27T03:45:00.418Z,0.00
2018-09-27T03:46:00.394Z,0.00
2018-09-27T03:47:00.352Z,0.00
2018-09-27T03:48:00.339Z,0.00
2018-09-27T03:49:00.286Z,0.00
2018-09-27T03:50:00.233Z,0.00
2018-09-27T03:51:00.274Z,0.00
2018-09-27T03:52:00.153Z,0.00
2018-09-27T03:53:00.092Z,0.00
2018-09-27T03:54:00.048Z,0.00
2018-09-27T03:55:00.012Z,0.00
2018-09-27T03:55:59.988Z,0.00
2018-09-27T03:56:59.966Z,0.00
2018-09-27T03:57:59.912Z,0.00
2018-09-27T03:58:59.838Z,0.00
2018-09-27T03:59:59.818Z,0.00
2018-09-27T04:00:59.766Z,0.00
2018-09-27T04:01:59.735Z,0.00
2018-09-27T04:02:59.691Z,0.00
2018-09-27T04:03:59.670Z,0.00
2018-09-27T04:04:59.674Z,0.00
2018-09-27T04:05:59.547Z,0.00
2018-09-27T04:07:00.002Z,0.00
2018-09-27T04:07:59.471Z,0.00
2018-09-27T04:08:59.425Z,0.00
2018-09-27T04:09:59.402Z,0.00
2018-09-27T04:10:59.391Z,0.00
2018-09-27T04:11:59.322Z,0.00
2018-09-27T04:12:59.264Z,0.00
2018-09-27T04:13:59.247Z,0.00
2018-09-27T04:14:59.207Z,0.00
2018-09-27T04:15:59.168Z,0.00
2018-09-27T04:16:59.165Z,0.00
2018-09-27T04:17:59.074Z,0.00
2018-09-27T04:18:59.038Z,0.00
2018-09-27T04:19:58.998Z,0.00
2018-09-27T04:20:58.928Z,0.00
2018-09-27T04:21:58.927Z,0.00
2018-09-27T04:22:58.857Z,0.00
2018-09-27T04:23:58.974Z,0.00
2018-09-27T04:24:58.790Z,0.00
2018-09-27T04:25:58.739Z,0.00
2018-09-27T04:26:58.751Z,0.00
2018-09-27T04:27:58.696Z,0.00
2018-09-27T04:28:58.618Z,0.00
2018-09-27T04:29:58.592Z,0.00
2018-09-27T04:30:58.616Z,0.00
2018-09-27T04:31:58.576Z,4.00
2018-09-27T04:32:58.455Z,4.00
2018-09-27T04:33:58.577Z,4.00
2018-09-27T04:34:58.406Z,4.00
2018-09-27T04:35:58.321Z,4.00
2018-09-27T04:36:58.295Z,4.00
2018-09-27T04:37:58.254Z,8.00
2018-09-27T04:38:58.245Z,8.00
2018-09-27T04:39:58.154Z,8.00
2018-09-27T04:40:58.139Z,8.00
2018-09-27T04:41:58.077Z,12.00
2018-09-27T04:42:58.044Z,16.00
2018-09-27T04:43:57.984Z,20.00
2018-09-27T04:44:57.937Z,20.00
2018-09-27T04:45:58.032Z,24.00
2018-09-27T04:46:57.862Z,32.00
2018-09-27T04:47:57.829Z,36.00
2018-09-27T04:48:57.790Z,44.00
2018-09-27T04:49:57.737Z,56.00
2018-09-27T04:50:57.694Z,64.00
2018-09-27T04:51:57.778Z,76.00
2018-09-27T04:52:57.628Z,88.00
2018-09-27T04:53:57.648Z,104.00
2018-09-27T04:54:57.556Z,120.00
2018-09-27T04:55:57.503Z,140.00
2018-09-27T04:56:57.462Z,160.00
2018-09-27T04:57:57.445Z,184.00
2018-09-27T04:58:57.385Z,216.00
2018-09-27T04:59:57.397Z,244.00
2018-09-27T05:00:57.285Z,276.00
2018-09-27T05:01:57.278Z,312.00
2018-09-27T05:02:57.217Z,356.00
2018-09-27T05:03:57.259Z,396.00
2018-09-27T05:04:57.128Z,444.00
2018-09-27T05:05:57.107Z,492.00
2018-09-27T05:06:57.111Z,548.00
2018-09-27T05:07:57.064Z,616.00
2018-09-27T05:08:57.012Z,692.00
2018-09-27T05:09:56.942Z,764.00
2018-09-27T05:10:56.903Z,832.00
2018-09-27T05:11:56.850Z,908.00
2018-09-27T05:12:56.905Z,984.00
2018-09-27T05:13:56.777Z,1072.00
2018-09-27T05:14:56.754Z,1156.00
2018-09-27T05:15:56.798Z,1252.00
2018-09-27T05:16:56.650Z,1356.00
2018-09-27T05:17:56.613Z,1468.00
2018-09-27T05:18:56.576Z,1580.00
2018-09-27T05:19:56.511Z,1688.00
2018-09-27T05:20:56.501Z,1808.00
2018-09-27T05:21:56.471Z,1932.00
2018-09-27T05:22:56.446Z,2060.00
2018-09-27T05:23:56.386Z,2188.00
2018-09-27T05:24:56.339Z,2316.00
2018-09-27T05:25:56.278Z,2452.00
2018-09-27T05:26:56.251Z,2580.00
2018-09-27T05:27:56.243Z,2700.00
2018-09-27T05:28:56.153Z,2804.00
2018-09-27T05:29:56.199Z,2900.00
2018-09-27T05:30:56.088Z,2984.00
2018-09-27T05:31:56.066Z,3056.00
2018-09-27T05:32:56.003Z,3132.00
2018-09-27T05:33:56.036Z,3224.00
2018-09-27T05:34:55.916Z,3316.00
2018-09-27T05:35:55.875Z,3420.00
2018-09-27T05:36:55.858Z,3548.00
2018-09-27T05:37:55.790Z,3708.00
2018-09-27T05:38:55.774Z,3908.00
2018-09-27T05:39:55.729Z,4140.00
2018-09-27T05:40:55.684Z,4400.00
2018-09-27T05:41:55.641Z,4664.00
2018-09-27T05:42:55.588Z,4932.00
2018-09-27T05:43:55.596Z,5180.00
2018-09-27T05:44:55.528Z,5432.00
2018-09-27T05:45:55.518Z,5684.00
2018-09-27T05:46:55.500Z,5900.00
2018-09-27T05:47:55.466Z,6084.00
2018-09-27T05:48:55.345Z,6204.00
2018-09-27T05:49:55.340Z,6344.00
2018-09-27T05:50:55.292Z,6492.00
2018-09-27T05:51:55.244Z,6596.00
2018-09-27T05:52:55.205Z,6708.00
2018-09-27T05:53:55.148Z,6884.00
2018-09-27T05:54:55.134Z,7052.00
2018-09-27T05:55:55.161Z,7308.00
2018-09-27T05:56:55.039Z,7420.00
2018-09-27T05:57:55.023Z,7724.00
2018-09-27T05:58:54.962Z,7904.00
2018-09-27T05:59:54.930Z,7684.00
2018-09-27T06:00:54.935Z,7708.00
2018-09-27T06:01:54.943Z,7844.00
2018-09-27T06:02:54.785Z,7972.00
2018-09-27T06:03:54.769Z,8048.00
2018-09-27T06:04:54.739Z,8192.00
2018-09-27T06:05:54.675Z,8352.00
2018-09-27T06:06:54.657Z,8540.00
2018-09-27T06:07:54.602Z,8768.00
2018-09-27T06:08:54.564Z,8952.00
2018-09-27T06:09:54.524Z,9108.00
2018-09-27T06:10:54.479Z,9296.00
2018-09-27T06:11:54.447Z,9412.00
2018-09-27T06:12:54.396Z,9544.00
2018-09-27T06:13:54.377Z,9620.00
2018-09-27T06:14:54.319Z,9720.00
2018-09-27T06:15:54.293Z,9816.00
2018-09-27T06:16:54.236Z,9856.00
2018-09-27T06:17:54.200Z,9880.00
2018-09-27T06:18:54.165Z,10044.00
2018-09-27T06:19:54.167Z,10252.00
2018-09-27T06:20:54.119Z,10460.00
2018-09-27T06:21:54.038Z,10648.00
2018-09-27T06:22:54.063Z,10840.00
2018-09-27T06:23:53.966Z,10944.00
2018-09-27T06:24:53.916Z,11092.00
2018-09-27T06:25:53.888Z,11268.00
2018-09-27T06:26:53.848Z,11372.00
2018-09-27T06:27:53.850Z,11580.00
2018-09-27T06:28:53.772Z,11992.00
2018-09-27T06:29:53.744Z,12248.00
2018-09-27T06:30:53.697Z,12564.00
2018-09-27T06:31:53.721Z,13088.00
2018-09-27T06:32:53.611Z,13476.00
2018-09-27T06:33:53.590Z,13788.00
2018-09-27T06:34:53.553Z,14128.00
2018-09-27T06:35:53.527Z,14136.00
2018-09-27T06:36:53.486Z,13972.00
2018-09-27T06:37:53.408Z,13952.00
2018-09-27T06:38:53.390Z,13776.00
2018-09-27T06:39:53.351Z,13832.00
2018-09-27T06:40:53.315Z,14460.00
2018-09-27T06:41:53.265Z,15156.00
2018-09-27T06:42:53.227Z,15116.00
2018-09-27T06:43:53.188Z,14528.00
2018-09-27T06:44:53.165Z,14496.00
2018-09-27T06:45:53.135Z,15140.00
2018-09-27T06:46:53.088Z,16352.00
2018-09-27T06:47:53.098Z,17628.00
2018-09-27T06:48:53.176Z,18464.00
2018-09-27T06:49:52.957Z,18560.00
2018-09-27T06:50:52.945Z,18368.00
2018-09-27T06:51:52.929Z,18400.00
2018-09-27T06:52:52.843Z,19360.00
2018-09-27T06:53:52.815Z,20416.00
2018-09-27T06:54:52.894Z,21504.00
2018-09-27T06:55:52.880Z,22400.00
2018-09-27T06:56:52.722Z,23040.00
2018-09-27T06:57:52.668Z,23328.00
2018-09-27T06:58:52.635Z,23648.00
2018-09-27T06:59:52.584Z,24320.00
2018-09-27T07:00:52.571Z,24736.00
2018-09-27T07:01:52.527Z,25952.00
2018-09-27T07:02:52.493Z,25856.00
2018-09-27T07:03:52.457Z,25120.00
2018-09-27T07:04:52.419Z,24928.00
2018-09-27T07:05:52.373Z,24384.00
2018-09-27T07:06:52.352Z,23136.00
2018-09-27T07:07:52.325Z,22944.00
2018-09-27T07:08:52.286Z,23552.00
2018-09-27T07:09:52.219Z,23808.00
2018-09-27T07:10:52.194Z,24128.00
2018-09-27T07:11:52.227Z,24384.00
2018-09-27T07:12:52.177Z,24256.00
2018-09-27T07:13:52.093Z,23840.00
2018-09-27T07:14:52.033Z,23456.00
2018-09-27T07:15:52.018Z,23712.00
2018-09-27T07:16:51.968Z,24352.00
2018-09-27T07:17:51.940Z,24800.00
2018-09-27T07:18:51.934Z,24512.00
2018-09-27T07:19:51.883Z,23552.00
2018-09-27T07:20:51.846Z,22624.00
2018-09-27T07:21:51.814Z,21888.00
2018-09-27T07:22:51.782Z,22144.00
2018-09-27T07:23:51.710Z,22944.00
2018-09-27T07:24:51.684Z,22784.00
2018-09-27T07:25:51.656Z,22112.00
2018-09-27T07:26:51.655Z,21216.00
2018-09-27T07:27:51.601Z,20544.00
2018-09-27T07:28:52.166Z,20160.00
2018-09-27T07:29:51.541Z,19840.00
2018-09-27T07:30:51.508Z,20224.00
2018-09-27T07:31:51.465Z,21152.00
2018-09-27T07:32:51.425Z,21184.00
2018-09-27T07:33:51.369Z,20768.00
2018-09-27T07:34:51.345Z,20576.00
2018-09-27T07:35:51.318Z,20064.00
2018-09-27T07:36:51.290Z,19264.00
2018-09-27T07:37:51.230Z,18784.00
2018-09-27T07:38:51.196Z,18284.00
2018-09-27T07:39:51.151Z,20320.00
2018-09-27T07:40:51.127Z,23072.00
2018-09-27T07:41:51.079Z,20576.00
2018-09-27T07:42:51.167Z,19584.00
2018-09-27T07:43:51.026Z,21248.00
2018-09-27T07:44:50.981Z,17936.00
2018-09-27T07:45:50.956Z,22240.00
2018-09-27T07:46:50.925Z,23968.00
2018-09-27T07:47:50.888Z,23584.00
2018-09-27T07:48:50.865Z,29472.00
2018-09-27T07:49:50.803Z,27104.00
2018-09-27T07:50:50.804Z,26016.00
2018-09-27T07:51:50.736Z,25344.00
2018-09-27T07:52:50.704Z,29760.00
2018-09-27T07:53:50.671Z,32320.00
2018-09-27T07:54:50.726Z,27456.00
2018-09-27T07:55:50.607Z,27296.00
2018-09-27T07:56:50.567Z,21728.00
2018-09-27T07:57:50.563Z,21888.00
2018-09-27T07:58:50.534Z,26048.00
2018-09-27T07:59:50.493Z,18080.00
2018-09-27T08:00:50.444Z,16504.00
2018-09-27T08:01:50.417Z,15988.00
2018-09-27T08:02:50.480Z,14400.00
2018-09-27T08:03:50.343Z,13988.00
2018-09-27T08:04:50.316Z,15392.00
2018-09-27T08:05:50.295Z,16888.00
2018-09-27T08:06:50.252Z,14656.00
2018-09-27T08:07:50.309Z,15572.00
2018-09-27T08:08:50.210Z,21568.00
2018-09-27T08:09:50.152Z,29568.00
2018-09-27T08:10:50.298Z,26048.00
2018-09-27T08:11:50.160Z,39264.00
2018-09-27T08:12:50.060Z,54336.00
2018-09-27T08:13:50.020Z,51776.00
2018-09-27T08:14:49.988Z,67104.00
2018-09-27T08:15:49.996Z,25408.00
2018-09-27T08:16:49.948Z,40000.00
2018-09-27T08:17:49.889Z,22880.00
2018-09-27T08:18:49.865Z,18528.00
2018-09-27T08:19:49.846Z,19424.00
2018-09-27T08:20:49.867Z,18672.00
2018-09-27T08:21:49.755Z,18480.00
2018-09-27T08:22:49.747Z,19744.00
2018-09-27T08:23:49.705Z,23200.00
2018-09-27T08:24:49.672Z,22912.00
2018-09-27T08:25:49.628Z,17056.00
2018-09-27T08:26:49.624Z,18116.00
2018-09-27T08:27:49.571Z,15092.00
2018-09-27T08:28:49.523Z,18140.00
2018-09-27T08:29:49.503Z,17356.00
2018-09-27T08:30:49.551Z,15612.00
2018-09-27T08:31:49.456Z,17820.00
2018-09-27T08:32:49.407Z,23968.00
2018-09-27T08:33:49.483Z,38784.00
2018-09-27T08:34:49.368Z,47328.00
2018-09-27T08:35:49.289Z,57984.00
2018-09-27T08:36:49.285Z,61504.00
2018-09-27T08:37:49.247Z,64160.00
2018-09-27T08:38:49.295Z,68608.00
2018-09-27T08:39:49.182Z,66176.00
2018-09-27T08:40:49.169Z,70976.00
2018-09-27T08:41:49.109Z,75360.00
2018-09-27T08:42:49.095Z,71808.00
2018-09-27T08:43:49.063Z,62144.00
2018-09-27T08:44:49.131Z,36608.00
2018-09-27T08:45:49.040Z,33056.00
2018-09-27T08:46:48.986Z,46240.00
2018-09-27T08:47:48.958Z,34592.00
2018-09-27T08:48:48.915Z,43008.00
2018-09-27T08:49:48.864Z,37344.00
2018-09-27T08:50:48.875Z,38560.00
2018-09-27T08:51:48.805Z,36992.00
2018-09-27T08:52:48.780Z,34560.00
2018-09-27T08:53:48.779Z,40448.00
2018-09-27T08:54:48.723Z,55136.00
2018-09-27T08:55:48.708Z,72512.00
2018-09-27T08:56:48.659Z,68000.00
2018-09-27T08:57:48.625Z,71488.00
2018-09-27T08:58:48.610Z,52512.00
2018-09-27T08:59:48.589Z,39808.00
2018-09-27T09:00:48.545Z,42560.00
2018-09-27T09:01:48.538Z,52832.00
2018-09-27T09:02:48.499Z,53536.00
2018-09-27T09:03:48.534Z,55776.00
2018-09-27T09:04:48.446Z,55616.00
2018-09-27T09:05:48.420Z,52032.00
2018-09-27T09:06:48.425Z,56768.00
2018-09-27T09:07:48.442Z,74624.00
2018-09-27T09:08:48.365Z,80416.00
2018-09-27T09:09:48.296Z,81312.00
2018-09-27T09:10:48.295Z,84320.00
2018-09-27T09:11:48.276Z,76992.00
2018-09-27T09:12:48.237Z,62016.00
2018-09-27T09:13:48.205Z,73920.00
2018-09-27T09:14:48.207Z,74528.00
2018-09-27T09:15:48.192Z,79936.00
2018-09-27T09:16:48.128Z,76256.00
2018-09-27T09:17:48.155Z,82752.00
2018-09-27T09:18:48.098Z,83360.00
2018-09-27T09:19:48.065Z,81536.00
2018-09-27T09:20:48.200Z,77088.00
2018-09-27T09:21:48.116Z,81568.00
2018-09-27T09:22:48.195Z,79552.00
2018-09-27T09:23:48.126Z,91232.00
2018-09-27T09:24:48.068Z,58880.00
2018-09-27T09:25:48.142Z,32448.00
2018-09-27T09:26:47.919Z,36416.00
2018-09-27T09:27:48.026Z,30080.00
2018-09-27T09:28:47.904Z,59744.00
2018-09-27T09:29:48.079Z,60128.00
2018-09-27T09:30:48.000Z,42144.00
2018-09-27T09:31:47.941Z,36032.00
2018-09-27T09:32:47.880Z,35968.00
2018-09-27T09:33:47.748Z,36256.00
2018-09-27T09:34:47.730Z,48960.00
2018-09-27T09:35:47.721Z,46560.00
2018-09-27T09:36:47.676Z,65312.00
2018-09-27T09:37:47.653Z,73376.00
2018-09-27T09:38:47.664Z,60928.00
2018-09-27T09:39:47.649Z,55840.00
2018-09-27T09:40:47.578Z,48768.00
2018-09-27T09:41:47.575Z,50528.00
2018-09-27T09:42:47.585Z,49984.00
2018-09-27T09:43:47.535Z,44896.00
2018-09-27T09:44:50.208Z,41568.00
2018-09-27T09:45:47.473Z,53888.00
2018-09-27T09:46:47.455Z,72736.00
2018-09-27T09:47:47.422Z,84800.00
2018-09-27T09:48:47.423Z,85088.00
2018-09-27T09:49:47.400Z,82432.00
2018-09-27T09:50:47.387Z,83968.00
2018-09-27T09:51:47.348Z,79616.00
2018-09-27T09:52:47.399Z,81856.00
2018-09-27T09:53:47.381Z,80992.00
2018-09-27T09:54:47.319Z,77920.00
2018-09-27T09:55:47.445Z,83392.00
2018-09-27T09:56:47.302Z,82848.00
2018-09-27T09:57:47.452Z,87456.00
2018-09-27T09:58:47.436Z,88672.00
2018-09-27T09:59:47.344Z,86880.00
2018-09-27T10:00:47.213Z,88576.00
2018-09-27T10:01:47.192Z,83744.00
2018-09-27T10:02:47.218Z,80608.00
2018-09-27T10:03:47.121Z,81088.00
2018-09-27T10:04:47.267Z,81984.00
2018-09-27T10:05:47.250Z,81408.00
2018-09-27T10:06:47.161Z,76480.00
2018-09-27T10:07:47.239Z,81248.00
2018-09-27T10:08:46.989Z,87136.00
2018-09-27T10:09:46.983Z,86496.00
2018-09-27T10:10:46.908Z,87232.00
2018-09-27T10:11:46.897Z,77248.00
2018-09-27T10:12:46.889Z,77728.00
2018-09-27T10:13:46.877Z,78720.00
2018-09-27T10:14:46.874Z,80032.00
2018-09-27T10:15:46.814Z,86432.00
2018-09-27T10:16:46.784Z,93536.00
2018-09-27T10:17:46.793Z,95584.00
2018-09-27T10:18:46.754Z,91424.00
2018-09-27T10:19:46.740Z,92992.00
2018-09-27T10:20:46.715Z,98880.00
2018-09-27T10:21:46.738Z,92768.00
2018-09-27T10:22:46.678Z,92992.00
2018-09-27T10:23:46.665Z,95232.00
2018-09-27T10:24:46.643Z,95296.00
2018-09-27T10:25:46.613Z,92032.00
2018-09-27T10:26:46.599Z,83424.00
2018-09-27T10:27:46.574Z,89312.00
2018-09-27T10:28:46.543Z,94144.00
2018-09-27T10:29:46.539Z,93984.00
2018-09-27T10:30:46.525Z,88480.00
2018-09-27T10:31:46.487Z,78816.00
2018-09-27T10:32:46.488Z,88288.00
2018-09-27T10:33:46.455Z,87936.00
2018-09-27T10:34:46.450Z,88544.00
2018-09-27T10:35:46.422Z,87296.00
2018-09-27T10:36:46.396Z,93376.00
2018-09-27T10:37:46.389Z,102208.00
2018-09-27T10:38:46.367Z,90144.00
2018-09-27T10:39:46.330Z,84000.00
2018-09-27T10:40:46.299Z,88032.00
2018-09-27T10:41:46.291Z,97856.00
2018-09-27T10:42:46.282Z,95584.00
2018-09-27T10:43:46.255Z,85728.00
2018-09-27T10:44:46.253Z,81440.00
2018-09-27T10:45:46.219Z,81632.00
2018-09-27T10:46:46.177Z,78560.00
2018-09-27T10:47:46.167Z,77024.00
2018-09-27T10:48:46.136Z,78240.00
2018-09-27T10:49:46.144Z,71872.00
2018-09-27T10:50:46.106Z,77312.00
2018-09-27T10:51:46.110Z,88544.00
2018-09-27T10:52:46.072Z,94592.00
2018-09-27T10:53:46.055Z,100672.00
2018-09-27T10:54:46.016Z,104800.00
2018-09-27T10:55:46.009Z,94816.00
2018-09-27T10:56:45.988Z,79328.00
2018-09-27T10:57:45.962Z,82848.00
2018-09-27T10:58:45.948Z,88288.00
2018-09-27T10:59:45.973Z,88992.00
2018-09-27T11:00:45.902Z,91168.00
2018-09-27T11:01:45.868Z,87968.00
2018-09-27T11:02:45.857Z,88160.00
2018-09-27T11:03:45.845Z,85216.00
2018-09-27T11:04:45.811Z,81920.00
2018-09-27T11:05:45.877Z,80160.00
2018-09-27T11:06:45.783Z,79808.00
2018-09-27T11:07:45.788Z,87424.00
2018-09-27T11:08:45.720Z,89568.00
2018-09-27T11:09:45.714Z,92160.00
2018-09-27T11:10:45.711Z,92256.00
2018-09-27T11:11:45.692Z,90304.00
2018-09-27T11:12:45.642Z,93184.00
2018-09-27T11:13:45.625Z,92832.00
2018-09-27T11:14:45.624Z,95712.00
2018-09-27T11:15:45.596Z,90080.00
2018-09-27T11:16:45.575Z,96128.00
2018-09-27T11:17:45.553Z,98752.00
2018-09-27T11:18:45.532Z,98080.00
2018-09-27T11:19:45.508Z,85600.00
2018-09-27T11:20:45.511Z,82176.00
2018-09-27T11:21:45.458Z,85504.00
2018-09-27T11:22:45.450Z,104608.00
2018-09-27T11:23:45.411Z,108896.00
2018-09-27T11:24:45.406Z,110848.00
2018-09-27T11:25:45.385Z,104512.00
2018-09-27T11:26:45.426Z,102048.00
2018-09-27T11:27:45.356Z,90880.00
2018-09-27T11:28:45.340Z,88256.00
2018-09-27T11:29:45.335Z,85248.00
2018-09-27T11:30:45.306Z,91424.00
2018-09-27T11:31:45.266Z,97408.00
2018-09-27T11:32:45.236Z,100864.00
2018-09-27T11:33:45.221Z,90272.00
2018-09-27T11:34:45.208Z,105312.00
2018-09-27T11:35:45.171Z,115168.00
2018-09-27T11:36:45.173Z,108448.00
2018-09-27T11:37:45.155Z,97344.00
2018-09-27T11:38:45.111Z,84736.00
2018-09-27T11:39:45.108Z,80640.00
2018-09-27T11:40:45.070Z,89152.00
2018-09-27T11:41:45.083Z,87104.00
2018-09-27T11:42:45.080Z,89984.00
2018-09-27T11:43:45.042Z,98016.00
2018-09-27T11:44:45.004Z,96032.00
2018-09-27T11:45:44.973Z,92288.00
2018-09-27T11:46:44.988Z,95360.00
2018-09-27T11:47:44.931Z,96864.00
2018-09-27T11:48:44.907Z,89664.00
2018-09-27T11:49:45.010Z,89216.00
2018-09-27T11:50:44.868Z,62464.00
2018-09-27T11:51:44.862Z,37120.00
2018-09-27T11:52:44.819Z,35232.00
2018-09-27T11:53:44.808Z,38144.00
2018-09-27T11:54:44.817Z,35680.00
2018-09-27T11:55:44.754Z,37472.00
2018-09-27T11:56:44.729Z,39680.00
2018-09-27T11:57:44.713Z,35552.00
2018-09-27T11:58:44.707Z,35680.00
2018-09-27T11:59:44.688Z,36096.00
2018-09-27T12:00:44.733Z,36064.00
2018-09-27T12:01:44.684Z,36352.00
2018-09-27T12:02:44.598Z,33280.00
2018-09-27T12:03:44.588Z,32896.00
2018-09-27T12:04:44.573Z,34176.00
2018-09-27T12:05:44.546Z,37984.00
2018-09-27T12:06:44.662Z,42432.00
2018-09-27T12:07:44.676Z,44384.00
2018-09-27T12:08:44.489Z,42944.00
2018-09-27T12:09:44.452Z,40288.00
2018-09-27T12:10:44.437Z,42240.00
2018-09-27T12:11:44.449Z,44640.00
2018-09-27T12:12:44.396Z,43104.00
2018-09-27T12:13:44.371Z,38752.00
2018-09-27T12:14:44.426Z,37312.00
2018-09-27T12:15:44.326Z,40672.00
2018-09-27T12:16:44.420Z,38720.00
2018-09-27T12:17:44.354Z,41536.00
2018-09-27T12:18:44.304Z,49344.00
2018-09-27T12:19:44.292Z,43360.00
2018-09-27T12:20:44.215Z,43712.00
2018-09-27T12:21:44.194Z,45728.00
2018-09-27T12:22:44.183Z,46080.00
2018-09-27T12:23:44.142Z,47488.00